Time,TemperatureF,DewpointF,PressureIn,WindDirection,WindDirectionDegrees,WindSpeedMPH,WindSpeedGustMPH,Humidity,HourlyPrecipIn,Conditions,Clouds,dailyrainin,SolarRadiationWatts/m^2,SoftwareType,DateUTC
2015-07-06 00:00:00,66.0,58.0,-100.00,South,180,1.0,-999.0,75,-99.99,,,-99.99,0.000000,,2015-07-06 05:00:00,
2015-07-06 00:34:00,66.0,58.0,-100.00,South,180,1.0,-999.0,75,-99.99,,,-99.99,0.000000,,2015-07-06 05:34:00,
2015-07-06 00:44:00,66.0,58.0,-100.00,South,180,1.0,-999.0,75,-99.99,,,-99.99,0.000000,,2015-07-06 05:44:00,
2015-07-06 00:53:00,66.0,58.0,-100.00,South,180,1.0,-999.0,75,-99.99,,,-99.99,0.000000,,2015-07-06 05:53:00,
2015-07-06 01:00:00,65.0,58.0,-100.00,SSE,157,1.0,-999.0,78,-99.99,,,-99.99,0.000000,,2015-07-06 06:00:00,
2015-07-06 01:34:00,65.0,58.0,-100.00,SSE,157,1.0,-999.0,78,-99.99,,,-99.99,0.000000,,2015-07-06 06:34:00,
2015-07-06 01:44:00,65.0,58.0,-100.00,SSE,157,1.0,-999.0,78,-99.99,,,-99.99,0.000000,,2015-07-06 06:44:00,
2015-07-06 01:54:00,65.0,58.0,-100.00,SSE,157,1.0,-999.0,78,-99.99,,,-99.99,0.000000,,2015-07-06 06:54:00,
2015-07-06 02:00:00,65.0,59.0,-100.00,SSE,157,1.0,-999.0,80,-99.99,,,-99.99,0.000000,,2015-07-06 07:00:00,
2015-07-06 02:33:00,65.0,59.0,-100.00,SSE,157,1.0,-999.0,80,-99.99,,,-99.99,0.000000,,2015-07-06 07:33:00,
2015-07-06 02:44:00,65.0,59.0,-100.00,SSE,157,1.0,-999.0,80,-99.99,,,-99.99,0.000000,,2015-07-06 07:44:00,
2015-07-06 02:53:00,65.0,59.0,-100.00,SSE,157,1.0,-999.0,80,-99.99,,,-99.99,0.000000,,2015-07-06 07:53:00,
2015-07-06 03:00:00,65.0,59.0,-100.00,SSE,157,1.0,-999.0,81,-99.99,,,-99.99,0.000000,,2015-07-06 08:00:00,
2015-07-06 03:43:00,65.0,59.0,-100.00,SSE,157,1.0,-999.0,81,-99.99,,,-99.99,0.000000,,2015-07-06 08:43:00,
2015-07-06 03:53:00,65.0,59.0,-100.00,SSE,157,1.0,-999.0,81,-99.99,,,-99.99,0.000000,,2015-07-06 08:53:00,
2015-07-06 04:00:00,64.0,59.0,-100.00,SSE,157,2.0,-999.0,83,-99.99,,,-99.99,0.000000,,2015-07-06 09:00:00,
2015-07-06 04:34:00,64.0,59.0,-100.00,SSE,157,2.0,-999.0,83,-99.99,,,-99.99,0.000000,,2015-07-06 09:34:00,
2015-07-06 04:44:00,64.0,59.0,-100.00,SSE,157,2.0,-999.0,83,-99.99,,,-99.99,0.000000,,2015-07-06 09:44:00,
2015-07-06 04:53:00,64.0,59.0,-100.00,SSE,157,2.0,-999.0,83,-99.99,,,-99.99,0.000000,,2015-07-06 09:53:00,
2015-07-06 05:00:00,63.0,59.0,-100.00,SSE,157,2.0,-999.0,85,-99.99,,,-99.99,0.000000,,2015-07-06 10:00:00,
2015-07-06 05:34:00,63.0,59.0,-100.00,SSE,157,2.0,-999.0,85,-99.99,,,-99.99,0.000000,,2015-07-06 10:34:00,
2015-07-06 05:44:00,63.0,59.0,-100.00,SSE,157,2.0,-999.0,85,-99.99,,,-99.99,0.000000,,2015-07-06 10:44:00,
2015-07-06 05:54:00,63.0,59.0,-100.00,SSE,157,2.0,-999.0,85,-99.99,,,-99.99,0.000000,,2015-07-06 10:54:00,
2015-07-06 06:00:00,62.0,59.0,-100.00,SSE,157,0.0,-999.0,88,-99.99,,,-99.99,15.080000,,2015-07-06 11:00:00,
2015-07-06 06:34:00,62.0,59.0,-100.00,SSE,157,0.0,-999.0,88,-99.99,,,-99.99,15.080000,,2015-07-06 11:34:00,
2015-07-06 06:44:00,62.0,59.0,-100.00,SSE,157,0.0,-999.0,88,-99.99,,,-99.99,15.080000,,2015-07-06 11:44:00,
2015-07-06 06:54:00,62.0,59.0,-100.00,SSE,157,0.0,-999.0,88,-99.99,,,-99.99,15.080000,,2015-07-06 11:54:00,
2015-07-06 07:00:00,63.0,60.0,-100.00,SSE,157,2.0,-999.0,88,-99.99,,,-99.99,87.000000,,2015-07-06 12:00:00,
2015-07-06 07:34:00,63.0,60.0,-100.00,SSE,157,2.0,-999.0,88,-99.99,,,-99.99,87.000000,,2015-07-06 12:34:00,
2015-07-06 07:44:00,63.0,60.0,-100.00,SSE,157,2.0,-999.0,88,-99.99,,,-99.99,87.000000,,2015-07-06 12:44:00,
2015-07-06 07:54:00,63.0,60.0,-100.00,SSE,157,2.0,-999.0,88,-99.99,,,-99.99,87.000000,,2015-07-06 12:54:00,
2015-07-06 08:00:00,66.0,61.0,-100.00,SE,135,4.0,-999.0,84,-99.99,,,-99.99,176.320007,,2015-07-06 13:00:00,
2015-07-06 08:34:00,66.0,61.0,-100.00,SE,135,4.0,-999.0,84,-99.99,,,-99.99,176.320007,,2015-07-06 13:34:00,
2015-07-06 08:44:00,66.0,61.0,-100.00,SE,135,4.0,-999.0,84,-99.99,,,-99.99,176.320007,,2015-07-06 13:44:00,
2015-07-06 08:54:00,66.0,61.0,-100.00,SE,135,4.0,-999.0,84,-99.99,,,-99.99,176.320007,,2015-07-06 13:54:00,
2015-07-06 09:00:00,70.0,63.0,-100.00,SSE,157,3.0,-999.0,77,-99.99,,,-99.99,303.920013,,2015-07-06 14:00:00,
2015-07-06 09:33:00,70.0,63.0,-100.00,SSE,157,3.0,-999.0,77,-99.99,,,-99.99,303.920013,,2015-07-06 14:33:00,
2015-07-06 09:44:00,70.0,63.0,-100.00,SSE,157,3.0,-999.0,77,-99.99,,,-99.99,303.920013,,2015-07-06 14:44:00,
2015-07-06 09:53:00,70.0,63.0,-100.00,SSE,157,3.0,-999.0,77,-99.99,,,-99.99,303.920013,,2015-07-06 14:53:00,
2015-07-06 10:00:00,75.0,64.0,-100.00,SSE,157,4.0,-999.0,70,-99.99,,,-99.99,493.000000,,2015-07-06 15:00:00,
2015-07-06 10:44:00,75.0,64.0,-100.00,SSE,157,4.0,-999.0,70,-99.99,,,-99.99,493.000000,,2015-07-06 15:44:00,
2015-07-06 10:54:00,75.0,64.0,-100.00,SSE,157,4.0,-999.0,70,-99.99,,,-99.99,493.000000,,2015-07-06 15:54:00,
2015-07-06 11:00:00,77.0,65.0,-100.00,South,180,4.0,-999.0,67,-99.99,,,-99.99,624.080017,,2015-07-06 16:00:00,
2015-07-06 11:34:00,77.0,65.0,-100.00,South,180,4.0,-999.0,67,-99.99,,,-99.99,624.080017,,2015-07-06 16:34:00,
2015-07-06 11:44:00,77.0,65.0,-100.00,South,180,4.0,-999.0,67,-99.99,,,-99.99,624.080017,,2015-07-06 16:44:00,
2015-07-06 11:54:00,77.0,65.0,-100.00,South,180,4.0,-999.0,67,-99.99,,,-99.99,624.080017,,2015-07-06 16:54:00,
2015-07-06 12:00:00,77.0,66.0,-100.00,South,180,4.0,-999.0,69,-99.99,,,-99.99,328.279999,,2015-07-06 17:00:00,
2015-07-06 12:34:00,77.0,66.0,-100.00,South,180,4.0,-999.0,69,-99.99,,,-99.99,328.279999,,2015-07-06 17:34:00,
2015-07-06 12:44:00,77.0,66.0,-100.00,South,180,4.0,-999.0,69,-99.99,,,-99.99,328.279999,,2015-07-06 17:44:00,
2015-07-06 12:54:00,77.0,66.0,-100.00,South,180,4.0,-999.0,69,-99.99,,,-99.99,328.279999,,2015-07-06 17:54:00,
2015-07-06 13:00:00,75.0,68.0,-100.00,SSE,157,2.0,-999.0,79,-99.99,,,-99.99,223.880005,,2015-07-06 18:00:00,
2015-07-06 13:34:00,75.0,68.0,-100.00,SSE,157,2.0,-999.0,79,-99.99,,,-99.99,223.880005,,2015-07-06 18:34:00,
2015-07-06 13:44:00,75.0,68.0,-100.00,SSE,157,2.0,-999.0,79,-99.99,,,-99.99,223.880005,,2015-07-06 18:44:00,
2015-07-06 13:54:00,75.0,68.0,-100.00,SSE,157,2.0,-999.0,79,-99.99,,,-99.99,223.880005,,2015-07-06 18:54:00,
2015-07-06 14:00:00,77.0,67.0,-100.00,SE,135,5.0,-999.0,71,-99.99,,,-99.99,513.880005,,2015-07-06 19:00:00,
2015-07-06 14:34:00,77.0,67.0,-100.00,SE,135,5.0,-999.0,71,-99.99,,,-99.99,513.880005,,2015-07-06 19:34:00,
2015-07-06 14:44:00,77.0,67.0,-100.00,SE,135,5.0,-999.0,71,-99.99,,,-99.99,513.880005,,2015-07-06 19:44:00,
2015-07-06 14:54:00,77.0,67.0,-100.00,SE,135,5.0,-999.0,71,-99.99,,,-99.99,513.880005,,2015-07-06 19:54:00,
2015-07-06 15:00:00,76.0,66.0,-100.00,SSE,157,5.0,-999.0,72,-99.99,,,-99.99,309.720001,,2015-07-06 20:00:00,
2015-07-06 16:34:00,75.0,66.0,-100.00,SSE,157,3.0,-999.0,73,-99.99,,,-99.99,211.119995,,2015-07-06 21:34:00,